Time;durP1;ratioP1;P1;durP2;ratioP2;P2;SDS_P1;SDS_P2;PMS_P1;PMS_P2;Temp;Humidity;BMP_temperature;BMP_pressure;BME280_temperature;BME280_humidity;BME280_pressure;Samples;Min_cycle;Max_cycle;Signal;HPM_P1;HPM_P2
2020/12/18 00:01:31;;;;;;;4.63;1.85;;;15.30;65.20;;;;;;5075613;28;20020;-50
2020/12/18 00:04:00;;;;;;;4.45;1.77;;;15.30;65.10;;;;;;5075240;28;20028;-50
2020/12/18 00:06:34;;;;;;;5.43;1.67;;;15.30;65.10;;;;;;5075532;28;20024;-50
2020/12/18 00:09:01;;;;;;;4.65;1.90;;;15.30;65.10;;;;;;5075941;28;20365;-50
2020/12/18 00:11:29;;;;;;;3.78;1.60;;;15.30;65.00;;;;;;5075445;28;20465;-50
2020/12/18 00:13:55;;;;;;;2.70;1.50;;;15.30;65.00;;;;;;5075600;28;20028;-50
2020/12/18 00:16:23;;;;;;;4.25;1.95;;;15.30;65.00;;;;;;5075519;28;20024;-50
2020/12/18 00:18:50;;;;;;;4.13;2.00;;;15.30;65.00;;;;;;5075235;28;20108;-50
2020/12/18 00:21:18;;;;;;;3.58;1.85;;;15.20;65.00;;;;;;5074915;28;20024;-50
2020/12/18 00:23:45;;;;;;;5.05;2.20;;;15.20;65.00;;;;;;5074866;28;20108;-50
2020/12/18 00:26:11;;;;;;;4.22;1.60;;;15.20;65.00;;;;;;5074750;28;20025;-50
2020/12/18 00:28:38;;;;;;;3.65;1.80;;;15.20;65.00;;;;;;5074878;28;20036;-50
2020/12/18 00:31:04;;;;;;;3.50;1.60;;;15.20;64.90;;;;;;5074933;28;20067;-50
2020/12/18 00:33:31;;;;;;;3.63;1.75;;;15.10;64.80;;;;;;5075018;28;20044;-50
2020/12/18 00:35:59;;;;;;;3.25;1.70;;;15.20;64.90;;;;;;5074564;28;20522;-50
2020/12/18 00:38:26;;;;;;;3.72;1.80;;;15.20;64.90;;;;;;5074494;28;20036;-50
2020/12/18 00:40:52;;;;;;;5.35;1.77;;;15.20;64.90;;;;;;5074797;28;20023;-50
2020/12/18 00:43:19;;;;;;;2.90;1.50;;;15.10;64.80;;;;;;5075296;28;20016;-50
2020/12/18 00:45:45;;;;;;;2.70;1.67;;;15.20;64.80;;;;;;5074471;28;20024;-50
2020/12/18 00:48:12;;;;;;;3.58;1.55;;;15.10;64.80;;;;;;5074559;28;20028;-50
2020/12/18 00:50:39;;;;;;;2.38;1.27;;;15.10;64.70;;;;;;5074647;28;20020;-50
2020/12/18 00:53:05;;;;;;;4.10;1.90;;;15.10;64.70;;;;;;5074593;28;20020;-50
2020/12/18 00:55:32;;;;;;;4.35;1.67;;;15.10;64.70;;;;;;5074191;28;20027;-50
2020/12/18 00:57:58;;;;;;;3.50;1.50;;;15.10;64.70;;;;;;5074528;28;20025;-50
2020/12/18 01:00:25;;;;;;;2.72;1.50;;;15.10;64.70;;;;;;5074396;28;20027;-50
2020/12/18 01:02:52;;;;;;;4.70;1.63;;;15.10;64.60;;;;;;5074446;28;20028;-50
2020/12/18 01:05:18;;;;;;;3.15;1.60;;;15.00;64.60;;;;;;5073470;28;20095;-50
2020/12/18 01:07:45;;;;;;;2.75;1.52;;;15.00;64.60;;;;;;5074203;28;20035;-50
2020/12/18 01:10:12;;;;;;;3.05;1.60;;;15.00;64.60;;;;;;5074542;28;20024;-50
2020/12/18 01:12:38;;;;;;;2.92;1.40;;;15.00;64.60;;;;;;5074006;28;20035;-50
2020/12/18 01:15:05;;;;;;;2.85;1.55;;;15.00;64.60;;;;;;5074276;28;20020;-50
2020/12/18 01:17:31;;;;;;;3.63;1.60;;;14.90;64.50;;;;;;5074455;28;20025;-50
2020/12/18 01:19:58;;;;;;;3.67;1.70;;;14.90;64.50;;;;;;5073873;28;20095;-50
2020/12/18 01:22:24;;;;;;;2.95;1.45;;;14.90;64.50;;;;;;5074135;28;20025;-50
2020/12/18 01:24:51;;;;;;;2.80;1.42;;;14.90;64.50;;;;;;5074138;28;20384;-50
2020/12/18 01:27:17;;;;;;;3.15;1.70;;;14.90;64.50;;;;;;5072767;28;20035;-50
2020/12/18 01:29:44;;;;;;;3.47;1.60;;;14.90;64.50;;;;;;5074077;28;20016;-50
2020/12/18 01:32:10;;;;;;;2.58;1.20;;;14.80;65.00;;;;;;5074322;28;20027;-50
2020/12/18 01:34:38;;;;;;;3.75;1.42;;;14.80;64.40;;;;;;5074402;28;20364;-50
2020/12/18 01:37:05;;;;;;;4.05;1.60;;;14.90;64.50;;;;;;5073984;28;20441;-50
2020/12/18 01:39:31;;;;;;;4.10;1.60;;;14.80;64.40;;;;;;5073362;28;20067;-50
2020/12/18 01:41:58;;;;;;;2.40;1.35;;;14.80;64.40;;;;;;5073940;28;20020;-50
2020/12/18 01:44:24;;;;;;;1.95;1.23;;;14.80;64.40;;;;;;5073542;28;20396;-50
2020/12/18 01:46:52;;;;;;;2.58;1.35;;;14.80;64.40;;;;;;5073880;28;20027;-50
2020/12/18 01:49:18;;;;;;;2.65;1.50;;;14.80;64.40;;;;;;5073801;28;20353;-50
2020/12/18 01:51:48;;;;;;;2.90;1.50;;;14.80;64.40;;;;;;5073848;28;20348;-50
2020/12/18 01:54:14;;;;;;;2.90;1.40;;;14.80;65.00;;;;;;5073830;28;20012;-50
2020/12/18 01:56:41;;;;;;;2.00;1.23;;;14.70;64.40;;;;;;5073775;28;20453;-50
2020/12/18 01:59:08;;;;;;;2.67;1.50;;;14.70;64.40;;;;;;5073787;28;20029;-50
2020/12/18 02:01:35;;;;;;;3.50;1.70;;;14.70;64.40;;;;;;5073465;28;20403;-50
2020/12/18 02:04:02;;;;;;;3.00;1.55;;;14.70;64.40;;;;;;5073449;28;20017;-50
2020/12/18 02:06:30;;;;;;;2.75;1.33;;;14.70;64.40;;;;;;5073966;28;20024;-50
2020/12/18 02:08:57;;;;;;;4.10;1.40;;;14.70;64.40;;;;;;5073299;28;20532;-50
2020/12/18 02:11:24;;;;;;;3.42;1.50;;;14.60;64.30;;;;;;5073677;28;20021;-50
2020/12/18 02:13:52;;;;;;;1.98;1.35;;;14.70;64.40;;;;;;5073653;28;20020;-50
2020/12/18 02:16:20;;;;;;;2.47;1.48;;;14.60;64.30;;;;;;5074256;28;20024;-50
2020/12/18 02:18:47;;;;;;;3.30;1.38;;;14.60;64.30;;;;;;5077567;28;20029;-50
2020/12/18 02:21:14;;;;;;;3.15;1.20;;;14.60;64.30;;;;;;5077540;28;20365;-50
2020/12/18 02:23:42;;;;;;;2.63;1.40;;;14.60;64.40;;;;;;5077472;28;20020;-50
2020/12/18 02:26:10;;;;;;;2.70;1.40;;;14.60;64.30;;;;;;5077370;28;20020;-50
2020/12/18 02:28:38;;;;;;;1.67;1.27;;;14.60;64.30;;;;;;5077247;28;20040;-50
2020/12/18 02:31:06;;;;;;;4.00;1.65;;;14.60;64.30;;;;;;5077549;28;20036;-50
2020/12/18 02:33:33;;;;;;;2.47;1.50;;;14.50;64.30;;;;;;5077297;28;20119;-50
2020/12/18 02:36:03;;;;;;;2.58;1.30;;;14.50;64.30;;;;;;5076939;28;20603;-50
2020/12/18 02:38:30;;;;;;;3.05;1.42;;;14.50;64.40;;;;;;5077144;28;20483;-50
2020/12/18 02:40:58;;;;;;;3.65;1.30;;;14.50;64.30;;;;;;5077154;28;20025;-50
2020/12/18 02:43:24;;;;;;;3.42;1.42;;;14.50;64.30;;;;;;5077053;28;20069;-50
2020/12/18 02:45:51;;;;;;;2.42;1.25;;;14.50;64.30;;;;;;5077057;28;20024;-50
2020/12/18 02:48:18;;;;;;;2.28;1.35;;;14.50;64.30;;;;;;5077142;28;20032;-50
2020/12/18 02:50:49;;;;;;;2.72;1.20;;;14.50;64.30;;;;;;5077234;28;20051;-50
2020/12/18 02:53:18;;;;;;;2.28;1.30;;;14.40;64.20;;;;;;5076964;28;20020;-50
2020/12/18 02:55:46;;;;;;;1.52;0.90;;;14.40;64.20;;;;;;5076819;28;20028;-50
2020/12/18 02:58:13;;;;;;;2.50;1.25;;;14.40;64.30;;;;;;5076815;28;20064;-50
2020/12/18 03:00:41;;;;;;;2.15;1.20;;;14.40;64.20;;;;;;5076748;28;20025;-50
2020/12/18 03:03:08;;;;;;;1.90;1.10;;;14.40;64.30;;;;;;5077267;28;20468;-50
2020/12/18 03:05:35;;;;;;;2.28;1.10;;;14.30;64.20;;;;;;5076444;28;20075;-50
2020/12/18 03:08:03;;;;;;;3.25;1.48;;;14.40;64.30;;;;;;5076534;28;20107;-50
2020/12/18 03:10:29;;;;;;;2.55;1.20;;;14.30;64.20;;;;;;5076578;28;20115;-50
2020/12/18 03:12:56;;;;;;;2.78;1.08;;;14.30;64.30;;;;;;5076553;28;20025;-50
2020/12/18 03:15:22;;;;;;;2.55;1.35;;;14.30;64.30;;;;;;5076213;28;20441;-50
2020/12/18 03:17:49;;;;;;;1.90;1.20;;;14.30;64.30;;;;;;5076382;28;20047;-50
2020/12/18 03:20:16;;;;;;;2.30;1.05;;;14.30;64.30;;;;;;5076432;28;20020;-50
2020/12/18 03:22:42;;;;;;;2.60;1.40;;;14.20;64.20;;;;;;5076086;28;20028;-50
2020/12/18 03:25:09;;;;;;;2.70;1.30;;;14.20;64.20;;;;;;5076289;28;20365;-50
2020/12/18 03:27:35;;;;;;;2.97;1.45;;;14.20;64.20;;;;;;5076326;28;20040;-50
2020/12/18 03:30:03;;;;;;;2.13;1.05;;;14.30;64.30;;;;;;5075356;28;20043;-50
2020/12/18 03:32:30;;;;;;;2.28;1.30;;;14.20;64.30;;;;;;5075975;28;20467;-50
2020/12/18 03:34:56;;;;;;;2.33;1.15;;;14.20;64.20;;;;;;5076195;28;20020;-50
2020/12/18 03:37:23;;;;;;;3.17;1.52;;;14.20;64.30;;;;;;5076012;28;20016;-50
2020/12/18 03:39:49;;;;;;;1.95;1.10;;;14.10;64.20;;;;;;5076378;28;20024;-50
2020/12/18 03:42:16;;;;;;;3.17;1.40;;;14.20;64.30;;;;;;5076223;28;20139;-50
2020/12/18 03:44:43;;;;;;;2.58;1.25;;;14.10;64.20;;;;;;5075947;28;20025;-50
2020/12/18 03:47:09;;;;;;;1.88;1.00;;;14.10;64.20;;;;;;5075482;28;20032;-50
2020/12/18 03:49:36;;;;;;;1.95;1.10;;;14.10;64.20;;;;;;5075854;28;20048;-50
2020/12/18 03:52:03;;;;;;;2.72;1.15;;;14.10;64.20;;;;;;5076365;28;20025;-50
2020/12/18 03:54:29;;;;;;;2.90;1.20;;;14.10;64.20;;;;;;5075471;28;20028;-50
2020/12/18 03:56:56;;;;;;;2.42;1.20;;;14.00;64.20;;;;;;5075662;28;20040;-50
2020/12/18 03:59:22;;;;;;;3.30;1.35;;;14.00;64.20;;;;;;5075369;28;20094;-50
2020/12/18 04:01:49;;;;;;;1.55;0.98;;;14.00;64.20;;;;;;5075906;28;20017;-50
2020/12/18 04:04:15;;;;;;;1.73;1.02;;;14.00;64.20;;;;;;5075478;28;20028;-50
2020/12/18 04:06:42;;;;;;;3.28;1.30;;;14.00;64.20;;;;;;5075672;28;20020;-50
2020/12/18 04:09:08;;;;;;;2.60;1.35;;;14.00;64.20;;;;;;5075371;28;20035;-50
2020/12/18 04:11:35;;;;;;;2.60;1.25;;;14.00;64.20;;;;;;5075378;28;20095;-50
2020/12/18 04:14:03;;;;;;;4.07;1.40;;;14.00;64.20;;;;;;5074079;28;20364;-49
2020/12/18 04:16:29;;;;;;;8.77;1.70;;;13.90;64.20;;;;;;5074460;28;20032;-49
2020/12/18 04:18:55;;;;;;;2.33;1.13;;;13.90;64.20;;;;;;5075294;28;20021;-49
2020/12/18 04:21:22;;;;;;;6.47;1.13;;;13.90;64.20;;;;;;5075219;28;20546;-49
2020/12/18 04:23:49;;;;;;;9.15;2.45;;;13.90;64.20;;;;;;5075180;28;20043;-49
2020/12/18 04:26:15;;;;;;;11.27;3.17;;;13.90;64.20;;;;;;5075090;28;20031;-49
2020/12/18 04:28:42;;;;;;;13.43;5.00;;;13.90;64.20;;;;;;5073313;28;20049;-49
2020/12/18 04:31:08;;;;;;;13.23;5.53;;;13.90;64.20;;;;;;5065587;28;20451;-49
2020/12/18 04:33:35;;;;;;;7.85;5.03;;;13.90;64.50;;;;;;5074664;28;20044;-49
2020/12/18 04:36:01;;;;;;;6.93;4.13;;;13.90;64.60;;;;;;5074323;28;20017;-49
2020/12/18 04:38:28;;;;;;;13.57;3.70;;;13.90;64.60;;;;;;5074029;28;20024;-50
2020/12/18 04:40:55;;;;;;;10.57;3.30;;;13.90;64.70;;;;;;5073244;28;20025;-50
2020/12/18 04:43:22;;;;;;;7.95;3.10;;;14.00;64.80;;;;;;5074332;28;20388;-50
2020/12/18 04:45:50;;;;;;;9.07;3.00;;;14.00;64.80;;;;;;5075016;28;20478;-50
2020/12/18 04:48:18;;;;;;;6.70;2.53;;;14.00;64.80;;;;;;5074004;28;20040;-50
2020/12/18 04:50:47;;;;;;;25.70;6.10;;;14.10;64.80;;;;;;5074486;28;20505;-50
2020/12/18 04:53:14;;;;;;;9.23;3.50;;;14.20;64.80;;;;;;5074056;28;20028;-50
2020/12/18 04:55:46;;;;;;;13.63;3.30;;;14.20;64.80;;;;;;5074527;28;20013;-50
2020/12/18 04:58:16;;;;;;;10.13;3.08;;;14.30;64.80;;;;;;5074509;28;20028;-49
2020/12/18 05:00:45;;;;;;;9.40;3.58;;;14.40;64.70;;;;;;5074328;28;20036;-50
2020/12/18 05:03:14;;;;;;;18.20;4.03;;;14.60;64.70;;;;;;5074625;28;20028;-50
2020/12/18 05:05:41;;;;;;;13.73;3.22;;;14.70;64.60;;;;;;5074165;28;20036;-50
2020/12/18 05:08:08;;;;;;;12.55;3.60;;;14.80;64.50;;;;;;5073731;28;20162;-50
2020/12/18 05:10:34;;;;;;;17.98;3.35;;;14.90;64.30;;;;;;5074281;28;20029;-50
2020/12/18 05:13:01;;;;;;;12.10;3.00;;;15.10;64.30;;;;;;5073953;28;20354;-50
2020/12/18 05:15:27;;;;;;;12.73;2.80;;;15.30;64.10;;;;;;5073995;28;20397;-50
2020/12/18 05:17:56;;;;;;;5.70;2.60;;;15.40;63.90;;;;;;5074144;28;20025;-50
2020/12/18 05:20:27;;;;;;;9.63;2.53;;;15.70;63.60;;;;;;5074154;28;20044;-50
2020/12/18 05:22:54;;;;;;;7.35;2.38;;;15.90;63.30;;;;;;5073575;28;20054;-50
2020/12/18 05:25:23;;;;;;;10.52;2.65;;;16.00;62.90;;;;;;5074016;28;20053;-50
2020/12/18 05:27:50;;;;;;;5.95;2.13;;;16.30;62.70;;;;;;5073687;28;20411;-50
2020/12/18 05:30:23;;;;;;;12.05;2.28;;;16.50;62.30;;;;;;5074018;28;20410;-50
2020/12/18 05:32:56;;;;;;;7.20;2.22;;;16.70;62.00;;;;;;5073740;28;20076;-50
2020/12/18 05:35:23;;;;;;;4.68;2.28;;;16.90;61.70;;;;;;5073675;28;20047;-49
2020/12/18 05:37:52;;;;;;;6.75;1.98;;;17.10;61.40;;;;;;5073647;28;20372;-50
2020/12/18 05:40:19;;;;;;;8.40;2.53;;;17.30;61.00;;;;;;5073357;28;20016;-50
2020/12/18 05:42:48;;;;;;;12.90;3.45;;;17.50;60.60;;;;;;5074187;28;20073;-50
2020/12/18 05:45:19;;;;;;;9.40;2.08;;;17.70;60.40;;;;;;5072325;28;20056;-50
2020/12/18 05:47:59;;;;;;;8.77;2.08;;;17.80;60.00;;;;;;5073453;28;20024;-50
2020/12/18 05:50:37;;;;;;;4.70;2.13;;;18.00;59.60;;;;;;5073888;28;20069;-50
2020/12/18 05:53:06;;;;;;;5.32;2.30;;;18.10;59.20;;;;;;5073060;28;20350;-50
2020/12/18 05:55:40;;;;;;;5.45;2.22;;;18.20;58.80;;;;;;5073755;28;20021;-50
2020/12/18 05:58:12;;;;;;;14.88;5.10;;;18.40;58.50;;;;;;5073537;28;20048;-50
2020/12/18 06:00:41;;;;;;;11.60;2.85;;;18.60;58.40;;;;;;5074588;28;20025;-50
2020/12/18 06:03:12;;;;;;;15.05;2.90;;;18.70;57.90;;;;;;5073647;28;20527;-50
2020/12/18 06:05:39;;;;;;;13.93;3.00;;;18.80;57.50;;;;;;5073611;28;20103;-50
2020/12/18 06:08:19;;;;;;;13.73;3.25;;;19.00;57.40;;;;;;5073779;28;20027;-50
2020/12/18 06:10:46;;;;;;;8.80;2.50;;;19.10;57.00;;;;;;5073723;28;20069;-50
2020/12/18 06:13:12;;;;;;;10.32;2.60;;;19.30;56.90;;;;;;5072902;28;20458;-50
2020/12/18 06:15:40;;;;;;;12.52;2.47;;;19.40;56.60;;;;;;5073612;28;20024;-50
2020/12/18 06:18:15;;;;;;;8.95;2.20;;;19.50;56.30;;;;;;5073305;28;20025;-50
2020/12/18 06:20:44;;;;;;;7.75;2.30;;;19.70;56.10;;;;;;5073631;28;20021;-50
2020/12/18 06:23:15;;;;;;;5.60;1.92;;;19.80;55.80;;;;;;5073326;28;20020;-50
2020/12/18 06:25:42;;;;;;;4.85;2.10;;;20.00;55.50;;;;;;5074093;28;20078;-50
2020/12/18 06:28:09;;;;;;;6.85;1.70;;;20.10;55.30;;;;;;5073638;28;20036;-50
2020/12/18 06:30:36;;;;;;;7.47;1.70;;;20.30;55.10;;;;;;5073072;28;20033;-50
2020/12/18 06:33:03;;;;;;;6.18;1.88;;;20.40;54.80;;;;;;5073527;28;20404;-50
2020/12/18 06:35:32;;;;;;;8.32;2.42;;;20.60;54.50;;;;;;5073083;28;20021;-50
2020/12/18 06:38:19;;;;;;;6.43;2.00;;;20.70;54.20;;;;;;5073355;28;20442;-50
2020/12/18 06:40:47;;;;;;;5.78;1.73;;;20.90;54.10;;;;;;5072378;28;20040;-50
2020/12/18 06:43:14;;;;;;;6.70;1.70;;;21.00;53.70;;;;;;5073158;28;20017;-49
2020/12/18 06:45:42;;;;;;;6.72;1.80;;;21.20;53.50;;;;;;5073243;28;20071;-50
2020/12/18 06:48:48;;;;;;;8.43;1.70;;;21.30;53.20;;;;;;5073212;28;20025;-50
2020/12/18 06:51:28;;;;;;;5.45;1.80;;;21.40;53.20;;;;;;5071867;28;20128;-50
2020/12/18 06:54:21;;;;;;;6.65;1.70;;;21.60;52.80;;;;;;5072866;28;20029;-50
2020/12/18 06:56:47;;;;;;;7.63;1.70;;;21.70;52.50;;;;;;5073409;28;20040;-50
2020/12/18 06:59:24;;;;;;;4.60;1.50;;;21.80;52.20;;;;;;5073439;28;20032;-50
2020/12/18 07:01:51;;;;;;;5.43;1.50;;;21.90;52.00;;;;;;5072668;28;20032;-49
2020/12/18 07:04:21;;;;;;;3.40;1.42;;;21.90;51.80;;;;;;5074930;28;20071;-50
2020/12/18 07:06:48;;;;;;;4.07;1.30;;;22.00;51.50;;;;;;5077177;28;20024;-50
2020/12/18 07:09:17;;;;;;;3.65;1.63;;;22.10;51.40;;;;;;5076776;28;20031;-50
2020/12/18 07:11:45;;;;;;;4.00;1.55;;;22.10;51.20;;;;;;5076286;28;20031;-50
2020/12/18 07:14:15;;;;;;;3.65;1.13;;;22.20;51.70;;;;;;5076487;28;20095;-49
2020/12/18 07:16:53;;;;;;;6.25;1.40;;;22.30;51.00;;;;;;5076489;28;20017;-50
2020/12/18 07:19:20;;;;;;;4.38;1.27;;;22.30;50.70;;;;;;5076176;28;20530;-49
2020/12/18 07:21:47;;;;;;;3.15;1.10;;;22.40;50.70;;;;;;5076359;28;20020;-50
2020/12/18 07:24:13;;;;;;;2.20;1.17;;;22.40;50.60;;;;;;5076170;28;20082;-50
2020/12/18 07:26:40;;;;;;;3.17;1.20;;;22.50;50.40;;;;;;5075876;28;20032;-49
2020/12/18 07:29:09;;;;;;;2.40;1.10;;;22.50;50.30;;;;;;5076481;28;20040;-50
2020/12/18 07:31:36;;;;;;;6.28;1.10;;;22.50;50.20;;;;;;5075964;28;20070;-50
2020/12/18 07:34:02;;;;;;;2.35;0.98;;;22.60;50.20;;;;;;5075772;28;20488;-50
2020/12/18 07:36:30;;;;;;;3.42;1.08;;;22.60;50.10;;;;;;5076884;28;20021;-49
2020/12/18 07:38:57;;;;;;;3.72;1.15;;;22.70;50.60;;;;;;5075577;28;20422;-49
2020/12/18 07:41:31;;;;;;;6.53;1.00;;;22.70;49.80;;;;;;5074801;28;20028;-50
2020/12/18 07:44:07;;;;;;;1.98;1.10;;;22.70;49.70;;;;;;5076089;28;20027;-50
2020/12/18 07:46:35;;;;;;;2.55;1.00;;;22.70;49.60;;;;;;5076584;28;20021;-50
2020/12/18 07:49:12;;;;;;;3.30;0.95;;;22.70;49.60;;;;;;5075507;28;20453;-50
2020/12/18 07:51:39;;;;;;;3.72;1.00;;;22.70;49.50;;;;;;5075917;28;20016;-50
2020/12/18 07:54:07;;;;;;;3.45;1.00;;;22.70;49.40;;;;;;5075807;28;20025;-50
2020/12/18 07:56:33;;;;;;;3.33;0.98;;;22.70;49.30;;;;;;5075509;28;20020;-50
2020/12/18 07:59:06;;;;;;;1.48;0.93;;;22.70;49.20;;;;;;5075424;28;20530;-50
2020/12/18 08:01:34;;;;;;;5.63;1.20;;;22.70;49.10;;;;;;5075708;28;20066;-50
2020/12/18 08:04:04;;;;;;;5.00;1.27;;;22.70;49.10;;;;;;5075354;28;20021;-50
2020/12/18 08:06:37;;;;;;;1.80;0.73;;;22.70;49.10;;;;;;5075246;28;20070;-50
2020/12/18 08:09:07;;;;;;;3.63;1.00;;;22.60;49.10;;;;;;5075213;28;20035;-50
2020/12/18 08:11:36;;;;;;;11.52;1.45;;;22.60;49.10;;;;;;5075545;28;20464;-50
2020/12/18 08:14:05;;;;;;;7.70;1.27;;;22.60;49.10;;;;;;5074885;28;20065;-50
2020/12/18 08:16:33;;;;;;;2.60;1.20;;;22.50;49.10;;;;;;5075408;28;20021;-50
2020/12/18 08:19:13;;;;;;;5.72;1.13;;;22.50;49.10;;;;;;5075871;28;20028;-49
2020/12/18 08:21:41;;;;;;;21.80;2.08;;;22.40;49.00;;;;;;5074532;28;20368;-49
2020/12/18 08:24:25;;;;;;;27.50;9.65;;;22.40;49.10;;;;;;5074530;28;20439;-49
2020/12/18 08:27:21;;;;;;;24.50;3.20;;;22.30;49.10;;;;;;5074701;28;20042;-49
2020/12/18 08:29:49;;;;;;;14.52;2.40;;;22.30;49.20;;;;;;5073510;28;20388;-49
2020/12/18 08:32:28;;;;;;;26.45;3.15;;;22.30;49.20;;;;;;5075020;28;20020;-49
2020/12/18 08:35:06;;;;;;;8.98;1.90;;;22.20;49.30;;;;;;5074754;28;20518;-49
2020/12/18 08:37:33;;;;;;;13.35;2.30;;;22.20;49.40;;;;;;5074443;28;20019;-49
2020/12/18 08:40:02;;;;;;;11.52;2.10;;;22.20;49.50;;;;;;5074605;28;20364;-49
2020/12/18 08:42:29;;;;;;;17.95;2.15;;;22.30;49.50;;;;;;5074772;28;20016;-49
2020/12/18 08:44:59;;;;;;;10.60;2.10;;;22.30;49.40;;;;;;5074292;28;20411;-49
2020/12/18 08:47:32;;;;;;;10.45;1.70;;;22.40;49.40;;;;;;5074653;28;20480;-49
2020/12/18 08:49:59;;;;;;;12.10;2.30;;;22.40;49.30;;;;;;5074422;28;20023;-49
2020/12/18 08:52:28;;;;;;;8.95;1.70;;;22.50;49.40;;;;;;5074243;28;20020;-49
2020/12/18 08:55:03;;;;;;;9.52;2.00;;;22.60;49.40;;;;;;5074846;28;20059;-49
2020/12/18 08:57:33;;;;;;;5.88;1.70;;;22.60;49.90;;;;;;5074485;28;20065;-49
2020/12/18 09:00:04;;;;;;;10.68;1.83;;;22.70;49.10;;;;;;5075093;28;20021;-49
2020/12/18 09:02:33;;;;;;;6.97;1.20;;;22.70;49.00;;;;;;5075590;28;20100;-49
2020/12/18 09:05:23;;;;;;;11.52;1.55;;;22.80;49.00;;;;;;5074051;28;20042;-49
2020/12/18 09:07:56;;;;;;;4.82;1.42;;;22.80;48.80;;;;;;5073446;28;20453;-49
2020/12/18 09:10:36;;;;;;;5.13;1.30;;;22.90;48.70;;;;;;5074950;28;20024;-49
2020/12/18 09:13:14;;;;;;;3.53;1.17;;;23.00;48.50;;;;;;5074370;28;20058;-49
2020/12/18 09:15:46;;;;;;;3.85;1.25;;;23.00;48.40;;;;;;5075066;28;20507;-49
2020/12/18 09:18:14;;;;;;;5.53;1.23;;;23.10;48.30;;;;;;5074322;28;20111;-49
2020/12/18 09:20:45;;;;;;;4.30;1.52;;;23.20;48.20;;;;;;5073835;28;20028;-49
2020/12/18 09:23:15;;;;;;;3.40;1.23;;;23.20;48.10;;;;;;5073908;28;20152;-49
2020/12/18 09:25:48;;;;;;;4.45;1.13;;;23.30;48.10;;;;;;5073908;28;20021;-49
2020/12/18 09:28:19;;;;;;;2.58;1.00;;;23.30;48.00;;;;;;5073468;28;20047;-49
2020/12/18 09:30:50;;;;;;;8.60;1.37;;;23.30;47.90;;;;;;5073749;28;20392;-49
2020/12/18 09:33:31;;;;;;;6.20;1.40;;;23.40;47.80;;;;;;5074240;28;20488;-49
2020/12/18 09:36:07;;;;;;;3.50;1.17;;;23.50;47.70;;;;;;5073891;28;20090;-49
2020/12/18 09:38:38;;;;;;;5.40;1.20;;;23.50;47.70;;;;;;5074325;28;20077;-49
2020/12/18 09:41:09;;;;;;;3.17;1.00;;;23.60;47.70;;;;;;5073666;28;20366;-49
2020/12/18 09:43:35;;;;;;;2.05;0.93;;;23.60;47.50;;;;;;5074491;28;20494;-49
2020/12/18 09:46:02;;;;;;;9.13;2.00;;;23.70;47.50;;;;;;5073138;28;20021;-49
2020/12/18 09:48:29;;;;;;;3.92;1.00;;;23.80;47.30;;;;;;5073865;28;20028;-49
2020/12/18 09:50:58;;;;;;;10.02;1.05;;;23.90;47.10;;;;;;5073892;28;20028;-49
2020/12/18 09:53:26;;;;;;;7.15;1.30;;;23.90;47.00;;;;;;5073839;28;20063;-49
2020/12/18 09:55:53;;;;;;;3.40;0.93;;;23.90;46.90;;;;;;5073765;28;20082;-49
2020/12/18 09:58:20;;;;;;;3.50;0.73;;;24.00;46.80;;;;;;5072549;28;20095;-49
2020/12/18 10:00:48;;;;;;;3.28;0.85;;;24.00;46.60;;;;;;5073258;28;20393;-49
2020/12/18 10:03:14;;;;;;;3.13;0.90;;;24.00;46.50;;;;;;5073757;28;20025;-49
2020/12/18 10:05:43;;;;;;;5.13;0.90;;;24.10;46.50;;;;;;5073657;28;20021;-49
2020/12/18 10:08:10;;;;;;;3.08;0.90;;;24.10;46.40;;;;;;5073647;28;20033;-50
2020/12/18 10:10:36;;;;;;;2.25;0.90;;;24.10;46.40;;;;;;5073674;28;20032;-49
2020/12/18 10:13:03;;;;;;;14.93;1.80;;;24.10;46.30;;;;;;5072788;28;20345;-48
2020/12/18 10:15:29;;;;;;;8.48;1.42;;;24.10;46.20;;;;;;5072541;28;20029;-49
2020/12/18 10:17:56;;;;;;;6.00;1.63;;;24.10;46.20;;;;;;5073636;28;20039;-49
2020/12/18 10:20:23;;;;;;;3.05;0.85;;;24.10;46.10;;;;;;5073754;28;20103;-49
2020/12/18 10:22:50;;;;;;;6.07;1.10;;;24.10;46.00;;;;;;5073570;28;20016;-49
2020/12/18 10:25:18;;;;;;;5.65;1.10;;;24.10;46.00;;;;;;5073166;28;20554;-49
2020/12/18 10:27:44;;;;;;;5.28;1.20;;;24.00;46.00;;;;;;5073154;28;20036;-48
2020/12/18 10:30:12;;;;;;;5.95;1.00;;;24.00;46.00;;;;;;5072273;28;20032;-49
2020/12/18 10:32:38;;;;;;;4.65;1.08;;;24.00;45.90;;;;;;5073061;28;20028;-49
2020/12/18 10:35:06;;;;;;;8.93;1.00;;;24.00;45.90;;;;;;5073363;28;20035;-49
2020/12/18 10:37:33;;;;;;;5.57;0.90;;;23.90;45.90;;;;;;5074165;28;20031;-49
2020/12/18 10:40:00;;;;;;;3.80;0.90;;;23.90;45.90;;;;;;5075993;28;20016;-49
2020/12/18 10:42:27;;;;;;;3.20;0.70;;;23.90;45.90;;;;;;5077128;28;20031;-49
2020/12/18 10:44:53;;;;;;;4.35;0.90;;;23.80;45.90;;;;;;5077097;28;20100;-49
2020/12/18 10:47:20;;;;;;;3.95;1.00;;;23.80;45.90;;;;;;5076424;28;20449;-49
2020/12/18 10:49:47;;;;;;;4.18;1.00;;;23.70;45.90;;;;;;5076812;28;20021;-49
2020/12/18 10:52:13;;;;;;;5.45;0.90;;;23.70;45.90;;;;;;5076983;28;20021;-49
2020/12/18 10:54:40;;;;;;;2.40;0.80;;;23.60;45.90;;;;;;5076596;28;20115;-49
2020/12/18 10:57:06;;;;;;;2.92;0.90;;;23.60;46.00;;;;;;5075629;28;20326;-49
2020/12/18 10:59:33;;;;;;;1.70;0.75;;;23.50;46.00;;;;;;5076453;28;20024;-49
2020/12/18 11:02:02;;;;;;;1.67;0.60;;;23.50;46.10;;;;;;5077114;28;20021;-49
2020/12/18 11:04:29;;;;;;;2.25;1.10;;;23.40;46.00;;;;;;5076754;28;20021;-49
2020/12/18 11:06:55;;;;;;;2.08;0.80;;;23.40;46.10;;;;;;5076685;28;20107;-49
2020/12/18 11:09:22;;;;;;;7.03;1.10;;;23.30;46.10;;;;;;5076538;28;20043;-49
2020/12/18 11:11:54;;;;;;;5.00;1.00;;;23.30;46.20;;;;;;5076586;28;20098;-49
2020/12/18 11:14:22;;;;;;;2.30;0.88;;;23.20;46.30;;;;;;5076255;28;20027;-49
2020/12/18 11:16:48;;;;;;;1.83;0.68;;;23.10;46.30;;;;;;5076550;28;20020;-49
2020/12/18 11:19:15;;;;;;;1.67;0.70;;;23.00;46.30;;;;;;5076502;28;20024;-49
2020/12/18 11:21:46;;;;;;;1.90;0.80;;;22.90;46.30;;;;;;5076457;28;20081;-49
2020/12/18 11:24:13;;;;;;;1.55;0.60;;;22.90;46.40;;;;;;5075806;28;20021;-49
2020/12/18 11:26:40;;;;;;;2.70;0.70;;;22.80;46.60;;;;;;5076133;28;20050;-49
2020/12/18 11:29:06;;;;;;;2.42;0.52;;;22.70;46.60;;;;;;5076209;28;20031;-49
2020/12/18 11:31:42;;;;;;;1.90;0.77;;;22.70;46.70;;;;;;5076323;28;20016;-49
2020/12/18 11:34:09;;;;;;;0.90;0.60;;;22.50;46.70;;;;;;5075834;28;20036;-49
2020/12/18 11:36:36;;;;;;;1.73;0.80;;;22.50;46.80;;;;;;5076148;28;20476;-49
2020/12/18 11:39:04;;;;;;;0.85;0.50;;;22.40;46.90;;;;;;5076429;28;20027;-49
2020/12/18 11:41:31;;;;;;;2.60;0.60;;;22.30;47.00;;;;;;5075983;28;20093;-49
2020/12/18 11:43:58;;;;;;;1.15;0.63;;;22.20;47.00;;;;;;5076016;28;20017;-49
2020/12/18 11:46:24;;;;;;;3.75;0.80;;;22.10;47.10;;;;;;5075678;28;20021;-49
2020/12/18 11:48:51;;;;;;;1.70;0.50;;;22.10;47.20;;;;;;5075782;28;20027;-49
2020/12/18 11:51:17;;;;;;;1.30;0.70;;;22.00;47.30;;;;;;5075633;28;20445;-49
2020/12/18 11:53:44;;;;;;;2.20;0.70;;;21.90;47.30;;;;;;5055440;28;20086;-49
2020/12/18 11:56:10;;;;;;;2.05;0.75;;;21.80;47.40;;;;;;5055711;28;20440;-49
2020/12/18 11:58:37;;;;;;;0.80;0.55;;;21.70;47.50;;;;;;5055730;28;20033;-49
2020/12/18 12:01:03;;;;;;;1.70;0.60;;;21.60;47.60;;;;;;5067302;28;20055;-49
2020/12/18 12:03:31;;;;;;;0.85;0.50;;;21.50;47.70;;;;;;5074912;28;20032;-49
2020/12/18 12:06:00;;;;;;;2.53;0.70;;;21.50;47.80;;;;;;5075563;28;20046;-49
2020/12/18 12:08:27;;;;;;;1.83;0.70;;;21.40;47.90;;;;;;5075474;28;20132;-49
2020/12/18 12:10:54;;;;;;;1.27;0.60;;;21.30;48.00;;;;;;5075470;28;20024;-49
2020/12/18 12:13:20;;;;;;;0.70;0.40;;;21.20;48.10;;;;;;5075276;28;20028;-49
2020/12/18 12:15:47;;;;;;;1.10;0.52;;;21.10;48.20;;;;;;5075605;28;20021;-49
2020/12/18 12:18:13;;;;;;;0.90;0.50;;;21.00;48.30;;;;;;5075052;28;20112;-49
2020/12/18 12:20:40;;;;;;;1.05;0.70;;;21.00;48.50;;;;;;5074924;28;20070;-49
2020/12/18 12:23:06;;;;;;;3.42;0.57;;;20.90;48.60;;;;;;5074777;28;20047;-49
2020/12/18 12:25:33;;;;;;;1.10;0.63;;;20.80;48.70;;;;;;5074922;28;20146;-49
2020/12/18 12:27:59;;;;;;;1.30;0.57;;;20.70;48.80;;;;;;5075097;28;20449;-49
2020/12/18 12:30:26;;;;;;;2.88;0.50;;;20.70;48.90;;;;;;5074805;28;20437;-49
2020/12/18 12:32:55;;;;;;;2.47;0.60;;;20.60;49.00;;;;;;5074612;28;20193;-49
2020/12/18 12:35:23;;;;;;;0.68;0.30;;;20.50;49.10;;;;;;5075015;28;20013;-49
2020/12/18 12:37:50;;;;;;;1.45;0.73;;;20.40;49.20;;;;;;5074662;28;20380;-49
2020/12/18 12:40:17;;;;;;;2.60;0.60;;;20.30;49.90;;;;;;5074458;28;20032;-49
2020/12/18 12:42:43;;;;;;;1.02;0.60;;;20.30;49.40;;;;;;5074849;28;20044;-49
2020/12/18 12:45:10;;;;;;;1.30;0.60;;;20.20;49.50;;;;;;5074853;28;20099;-49
2020/12/18 12:47:37;;;;;;;1.50;0.52;;;20.10;49.60;;;;;;5074538;28;20137;-49
2020/12/18 12:50:05;;;;;;;0.40;0.40;;;20.00;49.60;;;;;;5075282;28;20344;-49
2020/12/18 12:52:32;;;;;;;1.23;0.55;;;20.00;49.80;;;;;;5074661;28;20445;-49